createdAt,value
2023-03-23T00:01:24.546Z,1012.35
2023-03-23T00:03:24.562Z,1012.35
2023-03-23T00:05:24.574Z,1012.26
2023-03-23T00:07:24.695Z,1012.26
2023-03-23T00:09:24.600Z,1012.26
2023-03-23T00:11:24.589Z,1012.26
2023-03-23T00:13:24.591Z,1012.26
2023-03-23T00:15:24.584Z,1012.32
2023-03-23T00:17:24.675Z,1012.32
2023-03-23T00:19:54.655Z,1012.32
2023-03-23T00:21:54.612Z,1012.32
2023-03-23T00:23:54.623Z,1012.32
2023-03-23T00:25:54.604Z,1012.32
2023-03-23T00:27:54.579Z,1012.31
2023-03-23T00:29:54.615Z,1012.31
2023-03-23T00:31:54.627Z,1012.31
2023-03-23T00:33:54.614Z,1012.31
2023-03-23T00:35:54.636Z,1012.31
2023-03-23T00:37:54.626Z,1012.31
2023-03-23T00:39:54.607Z,1012.32
2023-03-23T00:41:54.649Z,1012.24
2023-03-23T00:43:54.605Z,1012.24
2023-03-23T00:45:54.596Z,1012.24
2023-03-23T00:47:54.658Z,1012.24
2023-03-23T00:49:54.736Z,1012.13
2023-03-23T00:51:54.617Z,1012.12
2023-03-23T00:53:54.774Z,1012.12
2023-03-23T00:55:54.680Z,1012.12
2023-03-23T00:57:54.653Z,1012.12
2023-03-23T00:59:54.689Z,1012.12
2023-03-23T01:01:55.702Z,1012.12
2023-03-23T01:03:54.721Z,1012.12
2023-03-23T01:05:54.600Z,1012.12
2023-03-23T01:07:54.611Z,1012.12
2023-03-23T01:09:54.627Z,1012.12
2023-03-23T01:11:54.683Z,1012.12
2023-03-23T01:13:54.641Z,1012.12
2023-03-23T01:15:54.614Z,1012.12
2023-03-23T01:17:54.637Z,1012.12
2023-03-23T01:19:54.680Z,1012.12
2023-03-23T01:21:54.612Z,1012.12
2023-03-23T01:23:54.742Z,1012.12
2023-03-23T01:25:54.724Z,1012.12
2023-03-23T01:27:54.739Z,1012.12
2023-03-23T01:29:54.631Z,1012.12
2023-03-23T01:31:54.649Z,1012.12
2023-03-23T01:33:54.724Z,1012.12
2023-03-23T01:35:54.719Z,1012.12
2023-03-23T01:37:54.610Z,1012.12
2023-03-23T01:39:54.656Z,1012.12
2023-03-23T01:41:58.181Z,1011.47
2023-03-23T01:43:54.627Z,1011.47
2023-03-23T01:45:54.735Z,1011.47
2023-03-23T01:47:54.627Z,1011.47
2023-03-23T01:49:54.670Z,1011.47
2023-03-23T01:51:54.651Z,1011.47
2023-03-23T01:53:54.726Z,1011.47
2023-03-23T01:55:54.765Z,1011.47
2023-03-23T01:57:54.872Z,1011.47
2023-03-23T01:59:54.669Z,1011.47
2023-03-23T02:03:52.205Z,1011.47
2023-03-23T02:06:22.216Z,1011.47
2023-03-23T02:08:22.236Z,1011.47
2023-03-23T02:10:22.225Z,1011.47
2023-03-23T02:12:22.220Z,1011.47
2023-03-23T02:14:22.219Z,1011.47
2023-03-23T02:16:22.232Z,1011.47
2023-03-23T02:18:22.236Z,1011.47
2023-03-23T02:20:22.215Z,1011.47
2023-03-23T02:22:22.218Z,1011.47
2023-03-23T02:24:22.210Z,1011.47
2023-03-23T02:26:22.220Z,1011.47
2023-03-23T02:28:22.250Z,1011.47
2023-03-23T02:30:22.230Z,1011.47
2023-03-23T02:32:22.241Z,1011.47
2023-03-23T02:34:22.222Z,1011.47
2023-03-23T02:36:22.239Z,1011.47
2023-03-23T02:38:22.235Z,1011.47
2023-03-23T02:40:22.400Z,1011.47
2023-03-23T02:42:22.346Z,1011.09
2023-03-23T02:44:22.246Z,1011.09
2023-03-23T02:46:22.234Z,1011.09
2023-03-23T02:48:22.247Z,1011.09
2023-03-23T02:50:22.270Z,1011.09
2023-03-23T02:52:22.251Z,1011.09
2023-03-23T02:54:22.239Z,1011.09
2023-03-23T02:56:22.297Z,1011.09
2023-03-23T02:58:22.276Z,1011.09
2023-03-23T03:00:22.254Z,1011.09
2023-03-23T03:02:22.230Z,1011.14
2023-03-23T03:04:22.258Z,1011.14
2023-03-23T03:06:22.240Z,1011.14
2023-03-23T03:08:22.256Z,1011.10
2023-03-23T03:10:22.276Z,1011.08
2023-03-23T03:12:22.233Z,1011.08
2023-03-23T03:14:22.254Z,1011.08
2023-03-23T03:16:22.270Z,1011.08
2023-03-23T03:18:22.250Z,1011.08
2023-03-23T03:20:22.262Z,1011.08
2023-03-23T03:22:22.274Z,1011.08
2023-03-23T03:24:22.276Z,1011.08
2023-03-23T03:26:22.254Z,1011.08
2023-03-23T03:28:22.264Z,1011.08
2023-03-23T03:30:22.310Z,1011.08
2023-03-23T03:32:22.275Z,1011.08
2023-03-23T03:34:22.282Z,1011.08
2023-03-23T03:36:22.336Z,1011.08
2023-03-23T03:38:22.273Z,1011.08
2023-03-23T03:40:22.279Z,1011.08
2023-03-23T03:42:22.392Z,1010.77
2023-03-23T03:44:22.268Z,1010.77
2023-03-23T03:46:22.304Z,1010.77
2023-03-23T03:48:22.291Z,1010.77
2023-03-23T03:50:22.298Z,1010.77
2023-03-23T03:52:22.284Z,1010.77
2023-03-23T03:54:22.387Z,1010.77
2023-03-23T03:56:22.291Z,1010.77
2023-03-23T03:58:22.296Z,1010.77
2023-03-23T04:00:52.280Z,1010.77
2023-03-23T04:02:52.294Z,1010.77
2023-03-23T04:04:52.351Z,1010.77
2023-03-23T04:06:52.283Z,1010.77
2023-03-23T04:08:52.295Z,1010.77
2023-03-23T04:10:52.306Z,1010.77
2023-03-23T04:12:52.290Z,1010.77
2023-03-23T04:14:52.301Z,1010.77
2023-03-23T04:16:54.553Z,1010.77
2023-03-23T04:18:53.596Z,1010.77
2023-03-23T04:20:52.314Z,1010.77
2023-03-23T04:22:52.378Z,1010.77
2023-03-23T04:24:56.970Z,1010.77
2023-03-23T04:26:52.326Z,1010.77
2023-03-23T04:28:52.469Z,1010.77
2023-03-23T04:30:52.299Z,1010.56
2023-03-23T04:32:52.370Z,1010.56
2023-03-23T04:34:52.424Z,1010.56
2023-03-23T04:36:56.186Z,1010.56
2023-03-23T04:38:52.412Z,1010.56
2023-03-23T04:40:52.328Z,1010.56
2023-03-23T04:42:52.478Z,1010.56
2023-03-23T04:44:52.454Z,1010.56
2023-03-23T04:46:52.337Z,1010.56
2023-03-23T04:48:52.374Z,1010.56
2023-03-23T04:50:53.692Z,1010.56
2023-03-23T04:52:52.301Z,1010.45
2023-03-23T04:54:52.412Z,1010.45
2023-03-23T04:56:52.427Z,1010.45
2023-03-23T04:58:52.440Z,1010.45
2023-03-23T05:00:52.320Z,1010.45
2023-03-23T05:02:52.317Z,1010.45
2023-03-23T05:04:52.338Z,1010.45
2023-03-23T05:06:52.401Z,1010.45
2023-03-23T05:08:52.349Z,1010.45
2023-03-23T05:10:52.334Z,1010.45
2023-03-23T05:12:52.354Z,1010.45
2023-03-23T05:14:52.341Z,1010.45
2023-03-23T05:16:52.353Z,1010.45
2023-03-23T05:18:52.514Z,1010.45
2023-03-23T05:20:52.406Z,1010.45
2023-03-23T05:22:52.352Z,1010.45
2023-03-23T05:24:52.332Z,1010.45
2023-03-23T05:26:52.436Z,1010.45
2023-03-23T05:28:52.342Z,1010.45
2023-03-23T05:30:52.375Z,1010.45
2023-03-23T05:32:52.389Z,1010.45
2023-03-23T05:34:52.335Z,1010.45
2023-03-23T05:36:52.356Z,1010.45
2023-03-23T05:40:52.448Z,1010.44
2023-03-23T05:42:53.406Z,1010.44
2023-03-23T05:44:52.474Z,1010.44
2023-03-23T05:46:52.347Z,1010.44
2023-03-23T05:48:52.412Z,1010.44
2023-03-23T05:50:52.352Z,1010.48
2023-03-23T05:52:52.374Z,1010.48
2023-03-23T05:55:22.476Z,1010.48
2023-03-23T05:57:22.460Z,1010.48
2023-03-23T05:59:22.467Z,1010.48
2023-03-23T06:01:22.396Z,1010.49
2023-03-23T06:03:22.372Z,1010.50
2023-03-23T06:05:22.414Z,1010.54
2023-03-23T06:07:22.499Z,1010.54
2023-03-23T06:09:22.490Z,1010.49
2023-03-23T06:11:22.466Z,1010.43
2023-03-23T06:13:22.474Z,1010.43
2023-03-23T06:15:22.497Z,1010.43
2023-03-23T06:17:22.432Z,1010.43
2023-03-23T06:19:22.383Z,1010.43
2023-03-23T06:21:22.514Z,1010.43
2023-03-23T06:23:22.356Z,1010.51
2023-03-23T06:25:22.453Z,1010.51
2023-03-23T06:27:22.470Z,1010.58
2023-03-23T06:29:22.404Z,1010.58
2023-03-23T06:31:22.543Z,1010.58
2023-03-23T06:33:22.417Z,1010.58
2023-03-23T06:35:22.431Z,1010.58
2023-03-23T06:37:22.472Z,1010.66
2023-03-23T06:39:22.465Z,1010.65
2023-03-23T06:41:22.470Z,1010.59
2023-03-23T06:43:22.396Z,1010.59
2023-03-23T06:45:22.447Z,1010.59
2023-03-23T06:47:22.403Z,1010.59
2023-03-23T06:49:22.428Z,1010.59
2023-03-23T06:51:22.437Z,1010.59
2023-03-23T06:53:22.395Z,1010.59
2023-03-23T06:55:22.550Z,1010.59
2023-03-23T06:57:22.416Z,1010.59
2023-03-23T06:59:22.401Z,1010.59
2023-03-23T07:01:22.552Z,1010.59
2023-03-23T07:03:22.429Z,1010.59
2023-03-23T07:05:22.442Z,1010.59
2023-03-23T07:07:22.478Z,1010.73
2023-03-23T07:09:25.599Z,1010.73
2023-03-23T07:11:22.418Z,1010.73
2023-03-23T07:13:22.405Z,1010.73
2023-03-23T07:15:22.435Z,1010.73
2023-03-23T07:17:22.412Z,1010.78
2023-03-23T07:19:22.415Z,1010.78
2023-03-23T07:21:22.410Z,1010.78
2023-03-23T07:23:22.430Z,1010.78
2023-03-23T07:25:22.436Z,1010.78
2023-03-23T07:27:22.433Z,1010.90
2023-03-23T07:29:22.440Z,1010.91
2023-03-23T07:31:22.465Z,1010.91
2023-03-23T07:33:22.417Z,1010.89
2023-03-23T07:35:22.421Z,1010.89
2023-03-23T07:37:22.439Z,1010.89
2023-03-23T07:39:22.440Z,1010.89
2023-03-23T07:41:22.554Z,1010.89
2023-03-23T07:43:22.442Z,1010.89
2023-03-23T07:45:22.561Z,1010.89
2023-03-23T07:47:22.601Z,1010.89
2023-03-23T07:49:22.475Z,1010.89
2023-03-23T07:51:52.452Z,1010.89
2023-03-23T07:53:52.559Z,1011.19
2023-03-23T07:55:52.435Z,1011.24
2023-03-23T07:57:52.450Z,1011.24
2023-03-23T07:59:52.436Z,1011.24
2023-03-23T08:01:52.468Z,1011.22
2023-03-23T08:03:52.426Z,1011.31
2023-03-23T08:05:52.534Z,1011.31
2023-03-23T08:07:52.455Z,1011.30
2023-03-23T08:09:52.452Z,1011.30
2023-03-23T08:11:52.476Z,1011.28
2023-03-23T08:13:52.497Z,1011.28
2023-03-23T08:15:52.537Z,1011.43
2023-03-23T08:17:52.501Z,1011.43
2023-03-23T08:19:52.460Z,1011.45
2023-03-23T08:21:52.466Z,1011.46
2023-03-23T08:23:52.480Z,1011.33
2023-03-23T08:25:52.469Z,1011.33
2023-03-23T08:27:52.464Z,1011.33
2023-03-23T08:29:52.471Z,1011.41
2023-03-23T08:31:52.477Z,1011.41
2023-03-23T08:33:52.483Z,1011.41
2023-03-23T08:35:52.538Z,1011.41
2023-03-23T08:37:52.508Z,1011.41
2023-03-23T08:39:52.584Z,1011.54
2023-03-23T08:41:52.473Z,1011.52
2023-03-23T08:43:52.493Z,1011.57
2023-03-23T08:45:52.516Z,1011.57
2023-03-23T08:47:52.485Z,1011.57
2023-03-23T08:49:52.491Z,1011.57
2023-03-23T08:51:52.558Z,1011.71
2023-03-23T08:53:52.504Z,1011.71
2023-03-23T08:55:53.695Z,1011.71
2023-03-23T08:57:52.512Z,1011.63
2023-03-23T08:59:52.478Z,1011.63
2023-03-23T09:01:52.536Z,1011.74
2023-03-23T09:03:52.591Z,1011.82
2023-03-23T09:05:52.516Z,1011.82
2023-03-23T09:07:52.538Z,1011.82
2023-03-23T09:09:52.562Z,1011.85
2023-03-23T09:11:52.555Z,1011.85
2023-03-23T09:15:54.908Z,1011.85
2023-03-23T09:17:45.544Z,1011.85
2023-03-23T09:19:45.865Z,1011.85
2023-03-23T09:21:45.542Z,1011.91
2023-03-23T09:24:15.581Z,1011.91
2023-03-23T09:26:15.583Z,1012.02
2023-03-23T09:28:15.577Z,1012.02
2023-03-23T09:30:15.576Z,1012.04
2023-03-23T09:32:15.579Z,1012.04
2023-03-23T09:34:15.550Z,1012.04
2023-03-23T09:36:15.627Z,1012.10
2023-03-23T09:38:15.603Z,1012.10
2023-03-23T09:40:15.613Z,1012.10
2023-03-23T09:42:15.594Z,1012.10
2023-03-23T09:44:15.589Z,1012.10
2023-03-23T09:46:15.566Z,1012.10
2023-03-23T09:48:15.620Z,1012.10
2023-03-23T09:50:15.712Z,1012.28
2023-03-23T09:52:15.566Z,1012.28
2023-03-23T09:54:15.611Z,1012.34
2023-03-23T09:56:15.566Z,1012.34
2023-03-23T09:58:15.583Z,1012.34
2023-03-23T10:00:15.644Z,1012.38
2023-03-23T10:02:15.576Z,1012.38
2023-03-23T10:04:15.611Z,1012.38
2023-03-23T10:06:15.580Z,1012.38
2023-03-23T10:08:15.567Z,1012.51
2023-03-23T10:10:15.605Z,1012.51
2023-03-23T10:12:15.580Z,1012.49
2023-03-23T10:14:15.606Z,1012.50
2023-03-23T10:16:15.611Z,1012.50
2023-03-23T10:18:15.593Z,1012.50
2023-03-23T10:20:15.616Z,1012.50
2023-03-23T10:22:15.600Z,1012.50
2023-03-23T10:24:15.617Z,1012.50
2023-03-23T10:26:15.592Z,1012.50
2023-03-23T10:28:15.627Z,1012.50
2023-03-23T10:30:15.592Z,1012.49
2023-03-23T10:32:15.647Z,1012.49
2023-03-23T10:34:15.612Z,1012.49
2023-03-23T10:36:15.751Z,1012.49
2023-03-23T10:38:15.616Z,1012.56
2023-03-23T10:40:15.608Z,1012.56
2023-03-23T10:42:15.613Z,1012.53
2023-03-23T10:44:15.661Z,1012.53
2023-03-23T10:46:22.996Z,1012.60
2023-03-23T10:48:15.620Z,1012.60
2023-03-23T10:50:15.621Z,1012.60
2023-03-23T10:52:15.652Z,1012.60
2023-03-23T10:54:15.611Z,1012.70
2023-03-23T10:56:15.642Z,1012.61
2023-03-23T10:58:15.616Z,1012.61
2023-03-23T11:00:15.648Z,1012.70
2023-03-23T11:02:24.091Z,1012.70
2023-03-23T11:04:15.633Z,1012.70
2023-03-23T11:06:15.611Z,1012.72
2023-03-23T11:08:15.623Z,1012.72
2023-03-23T11:10:15.643Z,1012.76
2023-03-23T11:12:15.701Z,1012.76
2023-03-23T11:14:15.642Z,1012.76
2023-03-23T11:16:15.634Z,1012.81
2023-03-23T11:18:15.640Z,1012.76
2023-03-23T11:20:45.679Z,1012.76
2023-03-23T11:22:45.647Z,1012.78
2023-03-23T11:24:45.892Z,1012.74
2023-03-23T11:26:56.871Z,1012.74
2023-03-23T11:28:45.679Z,1012.71
2023-03-23T11:30:45.724Z,1012.71
2023-03-23T11:32:45.723Z,1012.71
2023-03-23T11:34:45.724Z,1012.71
2023-03-23T11:36:45.664Z,1012.71
2023-03-23T11:38:45.663Z,1012.71
2023-03-23T11:40:45.759Z,1012.71
2023-03-23T11:42:45.665Z,1012.71
2023-03-23T11:44:45.693Z,1012.71
2023-03-23T11:46:45.701Z,1012.71
2023-03-23T11:48:45.650Z,1012.71
2023-03-23T11:50:45.739Z,1012.71
2023-03-23T11:52:45.674Z,1012.55
2023-03-23T11:54:45.969Z,1012.55
2023-03-23T11:56:45.774Z,1012.59
2023-03-23T11:58:45.683Z,1012.59
2023-03-23T12:00:45.725Z,1012.59
2023-03-23T12:02:45.654Z,1012.59
2023-03-23T12:04:45.754Z,1012.59
2023-03-23T12:06:45.684Z,1012.51
2023-03-23T12:08:45.683Z,1012.51
2023-03-23T12:10:46.226Z,1012.51
2023-03-23T12:12:45.820Z,1012.51
2023-03-23T12:14:45.680Z,1012.48
2023-03-23T12:16:45.678Z,1012.49
2023-03-23T12:18:45.674Z,1012.49
2023-03-23T12:22:45.736Z,1012.42
2023-03-23T12:24:45.803Z,1012.41
2023-03-23T12:26:45.707Z,1012.41
2023-03-23T12:28:45.687Z,1012.34
2023-03-23T12:30:45.696Z,1012.34
2023-03-23T12:32:45.760Z,1012.29
2023-03-23T12:34:45.719Z,1012.29
2023-03-23T12:36:45.702Z,1012.29
2023-03-23T12:38:45.694Z,1012.29
2023-03-23T12:40:46.635Z,1012.29
2023-03-23T12:42:45.707Z,1012.15
2023-03-23T12:44:45.723Z,1012.16
2023-03-23T12:46:45.703Z,1012.16
2023-03-23T12:48:45.764Z,1012.16
2023-03-23T12:50:45.902Z,1012.17
2023-03-23T12:52:45.777Z,1012.11
2023-03-23T12:54:45.701Z,1012.11
2023-03-23T12:56:45.810Z,1012.09
2023-03-23T12:58:45.755Z,1012.15
2023-03-23T13:00:45.766Z,1012.15
2023-03-23T13:02:45.722Z,1012.09
2023-03-23T13:04:45.793Z,1012.09
2023-03-23T13:06:45.798Z,1012.09
2023-03-23T13:08:45.745Z,1012.09
2023-03-23T13:10:45.755Z,1012.09
2023-03-23T13:12:45.724Z,1012.07
2023-03-23T13:14:45.722Z,1012.07
2023-03-23T13:17:15.758Z,1012.07
2023-03-23T13:19:15.794Z,1012.07
2023-03-23T13:21:15.748Z,1012.07
2023-03-23T13:23:15.760Z,1012.07
2023-03-23T13:25:15.844Z,1012.07
2023-03-23T13:27:15.870Z,1012.07
2023-03-23T13:29:15.809Z,1012.07
2023-03-23T13:31:15.761Z,1012.07
2023-03-23T13:33:15.746Z,1012.07
2023-03-23T13:35:15.760Z,1012.03
2023-03-23T13:39:15.734Z,1012.03
2023-03-23T13:41:15.777Z,1011.96
2023-03-23T13:43:15.840Z,1011.96
2023-03-23T13:45:15.796Z,1011.96
2023-03-23T13:47:15.856Z,1011.96
2023-03-23T13:49:16.496Z,1011.96
2023-03-23T13:51:15.813Z,1011.96
2023-03-23T13:53:15.815Z,1011.96
2023-03-23T13:55:15.749Z,1011.96
2023-03-23T13:57:15.774Z,1011.96
2023-03-23T13:59:15.775Z,1011.71
2023-03-23T14:01:15.891Z,1011.71
2023-03-23T14:03:15.803Z,1011.71
2023-03-23T14:05:15.789Z,1011.71
2023-03-23T14:07:15.865Z,1011.71
2023-03-23T14:09:15.783Z,1011.71
2023-03-23T14:11:15.765Z,1011.71
2023-03-23T14:13:15.886Z,1011.71
2023-03-23T14:15:15.771Z,1011.71
2023-03-23T14:17:15.812Z,1011.71
2023-03-23T14:19:15.790Z,1011.71
2023-03-23T14:21:15.835Z,1011.71
2023-03-23T14:23:15.776Z,1011.71
2023-03-23T14:25:15.778Z,1011.71
2023-03-23T14:27:15.862Z,1011.71
2023-03-23T14:29:15.791Z,1011.71
2023-03-23T14:31:15.771Z,1011.71
2023-03-23T14:33:15.791Z,1011.71
2023-03-23T14:35:15.789Z,1011.71
2023-03-23T14:37:15.850Z,1011.71
2023-03-23T14:39:15.807Z,1011.71
2023-03-23T14:41:15.793Z,1011.71
2023-03-23T14:43:15.813Z,1011.71
2023-03-23T14:45:15.775Z,1011.61
2023-03-23T14:47:15.810Z,1011.61
2023-03-23T14:49:15.867Z,1011.61
2023-03-23T14:51:15.841Z,1011.61
2023-03-23T14:53:15.816Z,1011.61
2023-03-23T14:55:15.782Z,1011.61
2023-03-23T14:57:15.781Z,1011.61
2023-03-23T14:59:15.816Z,1011.61
2023-03-23T15:01:15.931Z,1011.61
2023-03-23T15:03:16.011Z,1011.61
2023-03-23T15:05:15.812Z,1011.61
2023-03-23T15:07:16.118Z,1011.61
2023-03-23T15:09:15.802Z,1011.32
2023-03-23T15:11:15.840Z,1011.32
2023-03-23T15:13:45.805Z,1011.32
2023-03-23T15:15:45.815Z,1011.32
2023-03-23T15:17:45.824Z,1011.32
2023-03-23T15:19:45.870Z,1011.32
2023-03-23T15:21:45.849Z,1011.32
2023-03-23T15:23:45.874Z,1011.50
2023-03-23T15:25:45.818Z,1011.50
2023-03-23T15:27:45.870Z,1011.50
2023-03-23T15:29:45.920Z,1011.50
2023-03-23T15:31:45.967Z,1011.50
2023-03-23T15:33:45.961Z,1011.50
2023-03-23T15:35:45.875Z,1011.50
2023-03-23T15:37:45.982Z,1011.50
2023-03-23T15:39:45.921Z,1011.50
2023-03-23T15:41:46.004Z,1011.50
2023-03-23T15:43:45.920Z,1011.50
2023-03-23T15:45:46.095Z,1011.50
2023-03-23T15:47:45.947Z,1011.50
2023-03-23T15:49:46.300Z,1011.50
2023-03-23T15:51:46.344Z,1011.50
2023-03-23T15:53:45.883Z,1011.50
2023-03-23T15:55:46.071Z,1011.53
2023-03-23T15:59:46.024Z,1011.53
2023-03-23T16:01:45.877Z,1011.53
2023-03-23T16:03:46.013Z,1011.53
2023-03-23T16:05:45.949Z,1011.53
2023-03-23T16:07:45.886Z,1011.53
2023-03-23T16:09:45.991Z,1011.55
2023-03-23T16:11:45.941Z,1011.55
2023-03-23T16:13:46.017Z,1011.55
2023-03-23T16:15:46.122Z,1011.55
2023-03-23T16:19:46.072Z,1011.52
2023-03-23T16:21:46.029Z,1011.52
2023-03-23T16:23:45.882Z,1011.52
2023-03-23T16:25:45.978Z,1011.52
2023-03-23T16:27:46.044Z,1011.52
2023-03-23T16:30:03.105Z,1011.63
2023-03-23T16:31:46.517Z,1011.64
2023-03-23T16:33:38.067Z,1011.64
2023-03-23T16:35:38.063Z,1011.64
2023-03-23T16:37:38.011Z,1011.64
2023-03-23T16:40:08.047Z,1011.64
2023-03-23T16:42:07.986Z,1011.67
2023-03-23T16:44:08.077Z,1011.67
2023-03-23T16:46:08.009Z,1011.66
2023-03-23T16:48:08.139Z,1011.71
2023-03-23T16:50:08.062Z,1011.71
2023-03-23T16:52:08.027Z,1011.72
2023-03-23T16:54:08.045Z,1011.72
2023-03-23T16:56:08.045Z,1011.72
2023-03-23T17:00:08.124Z,1011.70
2023-03-23T17:02:07.992Z,1011.70
2023-03-23T17:04:08.016Z,1011.70
2023-03-23T17:06:08.146Z,1011.74
2023-03-23T17:08:08.047Z,1011.74
2023-03-23T17:10:08.051Z,1011.77
2023-03-23T17:12:08.079Z,1011.76
2023-03-23T17:14:08.003Z,1011.76
2023-03-23T17:16:08.061Z,1011.74
2023-03-23T17:18:08.035Z,1011.74
2023-03-23T17:20:08.031Z,1011.74
2023-03-23T17:22:08.085Z,1011.74
2023-03-23T17:24:08.080Z,1011.81
2023-03-23T17:26:08.079Z,1011.81
2023-03-23T17:28:08.106Z,1011.81
2023-03-23T17:30:08.212Z,1011.81
2023-03-23T17:32:07.999Z,1011.81
2023-03-23T17:34:08.024Z,1011.79
2023-03-23T17:36:09.108Z,1011.79
2023-03-23T17:38:10.087Z,1011.79
2023-03-23T17:40:09.006Z,1011.79
2023-03-23T17:42:09.003Z,1011.79
2023-03-23T17:44:08.023Z,1011.79
2023-03-23T17:46:08.000Z,1011.79
2023-03-23T17:48:08.345Z,1011.65
2023-03-23T17:50:11.317Z,1011.60
2023-03-23T17:52:08.053Z,1011.60
2023-03-23T17:54:08.056Z,1011.60
2023-03-23T17:56:08.089Z,1011.60
2023-03-23T17:58:08.119Z,1011.56
2023-03-23T18:00:08.045Z,1011.56
2023-03-23T18:02:08.039Z,1011.56
2023-03-23T18:04:08.028Z,1011.56
2023-03-23T18:06:08.065Z,1011.56
2023-03-23T18:08:08.103Z,1011.56
2023-03-23T18:10:08.207Z,1011.51
2023-03-23T18:12:08.134Z,1011.49
2023-03-23T18:14:08.095Z,1011.49
2023-03-23T18:16:08.143Z,1011.51
2023-03-23T18:18:08.025Z,1011.51
2023-03-23T18:20:08.082Z,1011.50
2023-03-23T18:22:08.078Z,1011.50
2023-03-23T18:24:08.103Z,1011.50
2023-03-23T18:26:08.182Z,1011.47
2023-03-23T18:28:08.147Z,1011.47
2023-03-23T18:30:08.238Z,1011.52
2023-03-23T18:32:08.237Z,1011.52
2023-03-23T18:34:08.031Z,1011.52
2023-03-23T18:36:08.151Z,1011.54
2023-03-23T18:38:08.084Z,1011.54
2023-03-23T18:40:08.108Z,1011.54
2023-03-23T18:42:38.140Z,1011.54
2023-03-23T18:44:38.187Z,1011.60
2023-03-23T18:46:38.161Z,1011.60
2023-03-23T18:48:38.056Z,1011.60
2023-03-23T18:50:38.129Z,1011.58
2023-03-23T18:52:38.132Z,1011.58
2023-03-23T18:54:38.174Z,1011.58
2023-03-23T18:56:38.170Z,1011.67
2023-03-23T18:58:38.165Z,1011.70
2023-03-23T19:00:38.148Z,1011.70
2023-03-23T19:02:38.118Z,1011.67
2023-03-23T19:04:38.063Z,1011.66
2023-03-23T19:06:38.109Z,1011.66
2023-03-23T19:08:38.105Z,1011.67
2023-03-23T19:10:38.147Z,1011.67
2023-03-23T19:12:38.194Z,1011.67
2023-03-23T19:14:39.135Z,1011.67
2023-03-23T19:16:38.183Z,1011.64
2023-03-23T19:18:38.086Z,1011.64
2023-03-23T19:21:09.718Z,1011.64
2023-03-23T19:22:38.122Z,1011.64
2023-03-23T19:24:38.302Z,1011.67
2023-03-23T19:26:38.437Z,1011.67
2023-03-23T19:30:38.173Z,1011.68
2023-03-23T19:32:38.146Z,1011.69
2023-03-23T19:34:38.087Z,1011.62
2023-03-23T19:36:38.221Z,1011.64
2023-03-23T19:38:38.169Z,1011.64
2023-03-23T19:40:49.818Z,1011.64
2023-03-23T19:42:38.170Z,1011.63
2023-03-23T19:44:38.204Z,1011.66
2023-03-23T19:46:38.234Z,1011.63
2023-03-23T19:48:39.093Z,1011.63
2023-03-23T19:50:38.132Z,1011.63
2023-03-23T19:52:38.157Z,1011.70
2023-03-23T19:54:38.326Z,1011.69
2023-03-23T19:56:38.231Z,1011.69
2023-03-23T19:58:38.181Z,1011.66
2023-03-23T20:00:38.178Z,1011.66
2023-03-23T20:02:38.270Z,1011.66
2023-03-23T20:04:38.164Z,1011.66
2023-03-23T20:06:38.119Z,1011.66
2023-03-23T20:08:40.287Z,1011.67
2023-03-23T20:10:38.255Z,1011.66
2023-03-23T20:12:38.173Z,1011.66
2023-03-23T20:14:38.238Z,1011.61
2023-03-23T20:16:38.204Z,1011.61
2023-03-23T20:18:38.329Z,1011.61
2023-03-23T20:20:38.181Z,1011.65
2023-03-23T20:22:38.133Z,1011.63
2023-03-23T20:24:38.409Z,1011.63
2023-03-23T20:26:38.209Z,1011.63
2023-03-23T20:28:38.243Z,1011.64
2023-03-23T20:30:38.212Z,1011.64
2023-03-23T20:32:38.131Z,1011.64
2023-03-23T20:34:38.138Z,1011.64
2023-03-23T20:36:38.114Z,1011.64
2023-03-23T20:38:38.152Z,1011.70
2023-03-23T20:40:38.169Z,1011.68
2023-03-23T20:43:09.675Z,1011.68
2023-03-23T20:45:08.248Z,1011.68
2023-03-23T20:47:08.256Z,1011.68
2023-03-23T20:49:08.233Z,1011.68
2023-03-23T20:51:08.175Z,1011.67
2023-03-23T20:53:08.150Z,1011.68
2023-03-23T20:55:08.196Z,1011.68
2023-03-23T20:57:08.336Z,1011.68
2023-03-23T20:59:08.191Z,1011.68
2023-03-23T21:01:09.254Z,1011.73
2023-03-23T21:03:08.269Z,1011.73
2023-03-23T21:05:08.257Z,1011.73
2023-03-23T21:07:08.187Z,1011.73
2023-03-23T21:09:08.308Z,1011.69
2023-03-23T21:11:08.263Z,1011.69
2023-03-23T21:13:08.209Z,1011.64
2023-03-23T21:15:08.227Z,1011.64
2023-03-23T21:17:08.265Z,1011.64
2023-03-23T21:19:08.266Z,1011.64
2023-03-23T21:21:09.395Z,1011.53
2023-03-23T21:23:08.170Z,1011.53
2023-03-23T21:25:08.186Z,1011.53
2023-03-23T21:27:08.222Z,1011.53
2023-03-23T21:29:08.217Z,1011.38
2023-03-23T21:31:08.254Z,1011.38
2023-03-23T21:33:08.556Z,1011.33
2023-03-23T21:35:08.295Z,1011.33
2023-03-23T21:37:08.165Z,1011.33
2023-03-23T21:39:08.184Z,1011.18
2023-03-23T21:41:08.214Z,1011.18
2023-03-23T21:43:08.266Z,1011.18
2023-03-23T21:45:08.216Z,1011.18
2023-03-23T21:47:08.252Z,1011.18
2023-03-23T21:49:08.295Z,1011.18
2023-03-23T21:51:08.299Z,1011.18
2023-03-23T21:53:08.175Z,1011.01
2023-03-23T21:55:08.202Z,1011.01
2023-03-23T21:57:08.274Z,1011.01
2023-03-23T21:59:08.240Z,1010.92
2023-03-23T22:01:08.218Z,1010.92
2023-03-23T22:03:08.309Z,1010.92
2023-03-23T22:05:08.306Z,1010.92
2023-03-23T22:07:08.159Z,1010.92
2023-03-23T22:09:08.206Z,1010.92
2023-03-23T22:11:08.198Z,1010.92
2023-03-23T22:13:08.253Z,1010.92
2023-03-23T22:15:08.240Z,1010.63
2023-03-23T22:17:08.263Z,1010.58
2023-03-23T22:19:08.202Z,1010.58
2023-03-23T22:21:08.294Z,1010.58
2023-03-23T22:23:08.189Z,1010.58
2023-03-23T22:25:08.229Z,1010.58
2023-03-23T22:27:08.247Z,1010.34
2023-03-23T22:29:08.269Z,1010.34
2023-03-23T22:31:08.282Z,1010.34
2023-03-23T22:33:08.274Z,1010.34
2023-03-23T22:35:08.191Z,1010.24
2023-03-23T22:37:08.192Z,1010.21
2023-03-23T22:39:38.261Z,1010.21
2023-03-23T22:41:38.194Z,1010.21
2023-03-23T22:43:38.338Z,1010.15
2023-03-23T22:45:38.260Z,1010.15
2023-03-23T22:47:38.224Z,1010.09
2023-03-23T22:49:38.220Z,1010.05
2023-03-23T22:51:38.234Z,1010.05
2023-03-23T22:53:38.201Z,1010.05
2023-03-23T22:55:38.251Z,1009.95
2023-03-23T22:57:38.210Z,1009.90
2023-03-23T22:59:38.228Z,1009.90
2023-03-23T23:01:38.347Z,1009.87
2023-03-23T23:03:38.410Z,1009.74
2023-03-23T23:05:38.293Z,1009.72
2023-03-23T23:07:38.218Z,1009.63
2023-03-23T23:09:38.258Z,1009.63
2023-03-23T23:11:40.708Z,1009.63
2023-03-23T23:13:38.294Z,1009.58
2023-03-23T23:15:38.298Z,1009.57
2023-03-23T23:17:38.270Z,1009.64
2023-03-23T23:19:38.307Z,1009.64
2023-03-23T23:21:38.273Z,1009.64
2023-03-23T23:23:38.441Z,1009.61
2023-03-23T23:25:38.230Z,1009.61
2023-03-23T23:27:38.304Z,1009.61
2023-03-23T23:29:38.235Z,1009.53
2023-03-23T23:31:38.331Z,1009.49
2023-03-23T23:33:38.227Z,1009.54
2023-03-23T23:35:38.326Z,1009.49
2023-03-23T23:37:38.231Z,1009.49
2023-03-23T23:39:38.457Z,1009.48
2023-03-23T23:41:38.286Z,1009.48
2023-03-23T23:43:38.332Z,1009.48
2023-03-23T23:47:50.577Z,1009.43
2023-03-23T23:49:50.760Z,1009.39
2023-03-23T23:51:50.637Z,1009.39
2023-03-23T23:53:50.514Z,1009.29
2023-03-23T23:55:50.558Z,1009.29
2023-03-23T23:57:50.553Z,1009.29
2023-03-23T23:59:50.547Z,1009.16
